sensor_id;sensor_type;location;lat;lon;timestamp;P1;durP1;ratioP1;P2;durP2;ratioP2
28934;SDS011;16044;52.726;-2.108;2022-11-15T00:01:07;15.07;;;2.78;;
28934;SDS011;16044;52.726;-2.108;2022-11-15T00:03:43;10.55;;;2.03;;
28934;SDS011;16044;52.726;-2.108;2022-11-15T00:06:11;15.23;;;2.63;;
28934;SDS011;16044;52.726;-2.108;2022-11-15T00:08:38;10.68;;;2.20;;
28934;SDS011;16044;52.726;-2.108;2022-11-15T00:11:05;16.08;;;2.45;;
28934;SDS011;16044;52.726;-2.108;2022-11-15T00:13:32;13.45;;;2.15;;
28934;SDS011;16044;52.726;-2.108;2022-11-15T00:16:00;12.40;;;2.28;;
28934;SDS011;16044;52.726;-2.108;2022-11-15T00:18:28;12.07;;;1.98;;
28934;SDS011;16044;52.726;-2.108;2022-11-15T00:20:56;11.73;;;1.80;;
28934;SDS011;16044;52.726;-2.108;2022-11-15T00:23:30;11.27;;;1.90;;
28934;SDS011;16044;52.726;-2.108;2022-11-15T00:25:57;12.80;;;2.05;;
28934;SDS011;16044;52.726;-2.108;2022-11-15T00:28:25;10.40;;;2.10;;
28934;SDS011;16044;52.726;-2.108;2022-11-15T00:30:53;14.52;;;1.85;;
28934;SDS011;16044;52.726;-2.108;2022-11-15T00:33:19;10.05;;;2.10;;
28934;SDS011;16044;52.726;-2.108;2022-11-15T00:35:46;11.50;;;1.95;;
28934;SDS011;16044;52.726;-2.108;2022-11-15T00:38:13;10.82;;;1.92;;
28934;SDS011;16044;52.726;-2.108;2022-11-15T00:40:40;10.75;;;1.83;;
28934;SDS011;16044;52.726;-2.108;2022-11-15T00:43:07;10.52;;;1.90;;
28934;SDS011;16044;52.726;-2.108;2022-11-15T00:45:34;9.40;;;1.90;;
28934;SDS011;16044;52.726;-2.108;2022-11-15T00:48:01;10.52;;;1.95;;
28934;SDS011;16044;52.726;-2.108;2022-11-15T00:50:28;12.57;;;1.88;;
28934;SDS011;16044;52.726;-2.108;2022-11-15T00:52:55;9.32;;;1.80;;
28934;SDS011;16044;52.726;-2.108;2022-11-15T00:55:22;10.90;;;1.95;;
28934;SDS011;16044;52.726;-2.108;2022-11-15T00:57:49;9.55;;;1.95;;
28934;SDS011;16044;52.726;-2.108;2022-11-15T01:00:16;10.57;;;2.10;;
28934;SDS011;16044;52.726;-2.108;2022-11-15T01:02:43;14.85;;;2.20;;
28934;SDS011;16044;52.726;-2.108;2022-11-15T01:05:09;13.30;;;2.10;;
28934;SDS011;16044;52.726;-2.108;2022-11-15T01:07:37;15.43;;;2.50;;
28934;SDS011;16044;52.726;-2.108;2022-11-15T01:10:04;12.60;;;1.83;;
28934;SDS011;16044;52.726;-2.108;2022-11-15T01:12:32;14.93;;;2.92;;
28934;SDS011;16044;52.726;-2.108;2022-11-15T01:14:59;13.27;;;2.20;;
28934;SDS011;16044;52.726;-2.108;2022-11-15T01:17:26;14.63;;;2.13;;
28934;SDS011;16044;52.726;-2.108;2022-11-15T01:19:53;11.73;;;1.80;;
28934;SDS011;16044;52.726;-2.108;2022-11-15T01:22:20;14.30;;;2.30;;
28934;SDS011;16044;52.726;-2.108;2022-11-15T01:24:47;11.40;;;1.92;;
28934;SDS011;16044;52.726;-2.108;2022-11-15T01:27:17;19.95;;;2.28;;
28934;SDS011;16044;52.726;-2.108;2022-11-15T01:29:44;11.98;;;2.03;;
28934;SDS011;16044;52.726;-2.108;2022-11-15T01:32:11;9.88;;;1.63;;
28934;SDS011;16044;52.726;-2.108;2022-11-15T01:34:38;14.18;;;1.83;;
28934;SDS011;16044;52.726;-2.108;2022-11-15T01:37:05;15.18;;;2.17;;
28934;SDS011;16044;52.726;-2.108;2022-11-15T01:39:32;16.35;;;2.22;;
28934;SDS011;16044;52.726;-2.108;2022-11-15T01:41:58;16.27;;;1.70;;
28934;SDS011;16044;52.726;-2.108;2022-11-15T01:44:37;12.27;;;1.63;;
28934;SDS011;16044;52.726;-2.108;2022-11-15T01:50:05;15.80;;;1.75;;
28934;SDS011;16044;52.726;-2.108;2022-11-15T01:52:42;11.85;;;1.95;;
28934;SDS011;16044;52.726;-2.108;2022-11-15T01:57:47;14.00;;;1.98;;
28934;SDS011;16044;52.726;-2.108;2022-11-15T02:00:20;20.70;;;2.38;;
28934;SDS011;16044;52.726;-2.108;2022-11-15T02:02:47;13.45;;;1.65;;
28934;SDS011;16044;52.726;-2.108;2022-11-15T02:05:14;14.95;;;1.85;;
28934;SDS011;16044;52.726;-2.108;2022-11-15T02:07:41;14.30;;;1.73;;
28934;SDS011;16044;52.726;-2.108;2022-11-15T02:10:10;13.77;;;1.80;;
28934;SDS011;16044;52.726;-2.108;2022-11-15T02:12:46;14.57;;;1.92;;
28934;SDS011;16044;52.726;-2.108;2022-11-15T02:15:14;17.27;;;1.90;;
28934;SDS011;16044;52.726;-2.108;2022-11-15T02:23:48;17.67;;;1.92;;
28934;SDS011;16044;52.726;-2.108;2022-11-15T02:32:54;18.25;;;2.10;;
28934;SDS011;16044;52.726;-2.108;2022-11-15T02:38:31;12.55;;;1.95;;
28934;SDS011;16044;52.726;-2.108;2022-11-15T02:41:47;12.70;;;2.03;;
28934;SDS011;16044;52.726;-2.108;2022-11-15T02:44:25;16.48;;;2.03;;
28934;SDS011;16044;52.726;-2.108;2022-11-15T02:47:01;15.18;;;2.30;;
28934;SDS011;16044;52.726;-2.108;2022-11-15T02:49:42;14.18;;;2.00;;
28934;SDS011;16044;52.726;-2.108;2022-11-15T02:52:16;14.63;;;2.05;;
28934;SDS011;16044;52.726;-2.108;2022-11-15T02:54:56;17.23;;;2.35;;
28934;SDS011;16044;52.726;-2.108;2022-11-15T02:57:39;18.08;;;2.25;;
28934;SDS011;16044;52.726;-2.108;2022-11-15T03:00:18;14.18;;;1.88;;
28934;SDS011;16044;52.726;-2.108;2022-11-15T03:05:35;12.80;;;1.98;;
28934;SDS011;16044;52.726;-2.108;2022-11-15T03:10:47;14.70;;;1.90;;
28934;SDS011;16044;52.726;-2.108;2022-11-15T03:16:30;16.30;;;1.80;;
28934;SDS011;16044;52.726;-2.108;2022-11-15T03:19:14;14.70;;;1.95;;
28934;SDS011;16044;52.726;-2.108;2022-11-15T03:21:50;19.20;;;2.35;;
28934;SDS011;16044;52.726;-2.108;2022-11-15T03:24:19;14.80;;;1.98;;
28934;SDS011;16044;52.726;-2.108;2022-11-15T03:26:51;17.60;;;1.92;;
28934;SDS011;16044;52.726;-2.108;2022-11-15T03:29:24;12.10;;;2.13;;
28934;SDS011;16044;52.726;-2.108;2022-11-15T03:32:07;14.95;;;2.28;;
28934;SDS011;16044;52.726;-2.108;2022-11-15T03:34:57;14.23;;;1.90;;
28934;SDS011;16044;52.726;-2.108;2022-11-15T03:37:40;17.10;;;1.67;;
28934;SDS011;16044;52.726;-2.108;2022-11-15T03:40:17;16.90;;;2.00;;
28934;SDS011;16044;52.726;-2.108;2022-11-15T03:42:52;18.48;;;1.77;;
28934;SDS011;16044;52.726;-2.108;2022-11-15T03:45:31;15.30;;;1.90;;
28934;SDS011;16044;52.726;-2.108;2022-11-15T03:48:09;22.30;;;2.00;;
28934;SDS011;16044;52.726;-2.108;2022-11-15T03:50:41;14.82;;;1.73;;
28934;SDS011;16044;52.726;-2.108;2022-11-15T03:53:09;13.30;;;2.03;;
28934;SDS011;16044;52.726;-2.108;2022-11-15T03:55:37;15.73;;;2.08;;
28934;SDS011;16044;52.726;-2.108;2022-11-15T03:58:04;18.13;;;2.03;;
28934;SDS011;16044;52.726;-2.108;2022-11-15T04:00:31;13.55;;;1.90;;
28934;SDS011;16044;52.726;-2.108;2022-11-15T04:02:58;13.00;;;2.35;;
28934;SDS011;16044;52.726;-2.108;2022-11-15T04:05:25;15.85;;;1.90;;
28934;SDS011;16044;52.726;-2.108;2022-11-15T04:07:52;19.92;;;2.33;;
28934;SDS011;16044;52.726;-2.108;2022-11-15T04:10:19;14.70;;;2.15;;
28934;SDS011;16044;52.726;-2.108;2022-11-15T04:12:46;15.35;;;1.88;;
28934;SDS011;16044;52.726;-2.108;2022-11-15T04:15:15;17.13;;;2.15;;
28934;SDS011;16044;52.726;-2.108;2022-11-15T04:17:47;16.02;;;1.90;;
28934;SDS011;16044;52.726;-2.108;2022-11-15T04:20:21;21.75;;;2.30;;
28934;SDS011;16044;52.726;-2.108;2022-11-15T04:23:08;13.98;;;1.92;;
28934;SDS011;16044;52.726;-2.108;2022-11-15T04:25:58;18.15;;;2.15;;
28934;SDS011;16044;52.726;-2.108;2022-11-15T04:28:28;21.90;;;2.58;;
28934;SDS011;16044;52.726;-2.108;2022-11-15T04:30:55;18.20;;;2.17;;
28934;SDS011;16044;52.726;-2.108;2022-11-15T04:33:22;16.23;;;2.45;;
28934;SDS011;16044;52.726;-2.108;2022-11-15T04:35:49;18.73;;;2.50;;
28934;SDS011;16044;52.726;-2.108;2022-11-15T04:38:36;21.60;;;2.72;;
28934;SDS011;16044;52.726;-2.108;2022-11-15T04:41:03;15.95;;;2.10;;
28934;SDS011;16044;52.726;-2.108;2022-11-15T04:43:30;12.43;;;2.10;;
28934;SDS011;16044;52.726;-2.108;2022-11-15T04:45:57;19.63;;;2.40;;
28934;SDS011;16044;52.726;-2.108;2022-11-15T04:48:24;19.02;;;2.75;;
28934;SDS011;16044;52.726;-2.108;2022-11-15T04:50:52;18.92;;;2.53;;
28934;SDS011;16044;52.726;-2.108;2022-11-15T04:53:18;18.48;;;2.83;;
28934;SDS011;16044;52.726;-2.108;2022-11-15T04:55:45;12.82;;;2.40;;
28934;SDS011;16044;52.726;-2.108;2022-11-15T04:58:12;18.42;;;3.17;;
28934;SDS011;16044;52.726;-2.108;2022-11-15T05:00:39;16.23;;;2.50;;
28934;SDS011;16044;52.726;-2.108;2022-11-15T05:03:07;13.82;;;2.60;;
28934;SDS011;16044;52.726;-2.108;2022-11-15T05:05:55;16.55;;;2.85;;
28934;SDS011;16044;52.726;-2.108;2022-11-15T05:08:21;15.52;;;2.53;;
28934;SDS011;16044;52.726;-2.108;2022-11-15T05:10:48;16.15;;;3.00;;
28934;SDS011;16044;52.726;-2.108;2022-11-15T05:13:16;11.05;;;2.20;;
28934;SDS011;16044;52.726;-2.108;2022-11-15T05:15:43;16.25;;;2.50;;
28934;SDS011;16044;52.726;-2.108;2022-11-15T05:18:10;13.38;;;2.40;;
28934;SDS011;16044;52.726;-2.108;2022-11-15T05:20:37;15.07;;;2.55;;
28934;SDS011;16044;52.726;-2.108;2022-11-15T05:23:04;12.93;;;2.33;;
28934;SDS011;16044;52.726;-2.108;2022-11-15T05:25:32;11.40;;;2.20;;
28934;SDS011;16044;52.726;-2.108;2022-11-15T05:27:58;14.52;;;2.45;;
28934;SDS011;16044;52.726;-2.108;2022-11-15T05:30:25;15.70;;;2.47;;
28934;SDS011;16044;52.726;-2.108;2022-11-15T05:32:52;18.20;;;2.47;;
28934;SDS011;16044;52.726;-2.108;2022-11-15T05:35:24;14.65;;;2.83;;
28934;SDS011;16044;52.726;-2.108;2022-11-15T05:38:01;11.32;;;2.80;;
28934;SDS011;16044;52.726;-2.108;2022-11-15T05:40:29;10.43;;;2.53;;
28934;SDS011;16044;52.726;-2.108;2022-11-15T05:42:57;13.60;;;2.75;;
28934;SDS011;16044;52.726;-2.108;2022-11-15T05:45:26;16.25;;;2.65;;
28934;SDS011;16044;52.726;-2.108;2022-11-15T05:47:54;8.80;;;2.35;;
28934;SDS011;16044;52.726;-2.108;2022-11-15T05:50:23;11.63;;;2.80;;
28934;SDS011;16044;52.726;-2.108;2022-11-15T05:52:52;11.27;;;2.60;;
28934;SDS011;16044;52.726;-2.108;2022-11-15T05:55:24;10.65;;;3.10;;
28934;SDS011;16044;52.726;-2.108;2022-11-15T05:57:51;12.15;;;3.38;;
28934;SDS011;16044;52.726;-2.108;2022-11-15T06:00:18;13.65;;;3.25;;
28934;SDS011;16044;52.726;-2.108;2022-11-15T06:02:45;13.93;;;3.10;;
28934;SDS011;16044;52.726;-2.108;2022-11-15T06:05:12;9.75;;;3.17;;
28934;SDS011;16044;52.726;-2.108;2022-11-15T06:07:39;11.45;;;3.45;;
28934;SDS011;16044;52.726;-2.108;2022-11-15T06:10:06;12.77;;;3.15;;
28934;SDS011;16044;52.726;-2.108;2022-11-15T06:12:34;10.40;;;3.00;;
28934;SDS011;16044;52.726;-2.108;2022-11-15T06:15:00;13.40;;;3.40;;
28934;SDS011;16044;52.726;-2.108;2022-11-15T06:17:27;16.38;;;3.17;;
28934;SDS011;16044;52.726;-2.108;2022-11-15T06:19:55;10.80;;;3.00;;
28934;SDS011;16044;52.726;-2.108;2022-11-15T06:22:22;9.35;;;2.92;;
28934;SDS011;16044;52.726;-2.108;2022-11-15T06:24:49;10.60;;;3.00;;
28934;SDS011;16044;52.726;-2.108;2022-11-15T06:27:16;9.02;;;2.45;;
28934;SDS011;16044;52.726;-2.108;2022-11-15T06:29:43;12.13;;;2.58;;
28934;SDS011;16044;52.726;-2.108;2022-11-15T06:32:09;10.65;;;2.63;;
28934;SDS011;16044;52.726;-2.108;2022-11-15T06:34:36;11.00;;;2.80;;
28934;SDS011;16044;52.726;-2.108;2022-11-15T06:37:03;10.57;;;2.58;;
28934;SDS011;16044;52.726;-2.108;2022-11-15T06:39:30;9.15;;;2.55;;
28934;SDS011;16044;52.726;-2.108;2022-11-15T06:41:57;10.38;;;2.50;;
28934;SDS011;16044;52.726;-2.108;2022-11-15T06:44:23;7.30;;;2.20;;
28934;SDS011;16044;52.726;-2.108;2022-11-15T06:46:50;8.63;;;2.15;;
28934;SDS011;16044;52.726;-2.108;2022-11-15T06:49:17;13.80;;;2.17;;
28934;SDS011;16044;52.726;-2.108;2022-11-15T06:51:44;11.95;;;2.60;;
28934;SDS011;16044;52.726;-2.108;2022-11-15T06:54:11;7.07;;;2.15;;
28934;SDS011;16044;52.726;-2.108;2022-11-15T06:56:38;6.65;;;1.70;;
28934;SDS011;16044;52.726;-2.108;2022-11-15T06:59:08;7.00;;;1.80;;
28934;SDS011;16044;52.726;-2.108;2022-11-15T07:01:35;8.82;;;1.73;;
28934;SDS011;16044;52.726;-2.108;2022-11-15T07:04:03;12.50;;;2.03;;
28934;SDS011;16044;52.726;-2.108;2022-11-15T07:06:30;8.75;;;2.17;;
28934;SDS011;16044;52.726;-2.108;2022-11-15T07:08:56;7.75;;;1.65;;
28934;SDS011;16044;52.726;-2.108;2022-11-15T07:11:23;9.07;;;1.80;;
28934;SDS011;16044;52.726;-2.108;2022-11-15T07:13:50;7.38;;;1.45;;
28934;SDS011;16044;52.726;-2.108;2022-11-15T07:16:17;4.78;;;1.58;;
28934;SDS011;16044;52.726;-2.108;2022-11-15T07:18:44;4.30;;;1.30;;
28934;SDS011;16044;52.726;-2.108;2022-11-15T07:21:11;5.47;;;1.52;;
28934;SDS011;16044;52.726;-2.108;2022-11-15T07:23:39;6.18;;;1.52;;
28934;SDS011;16044;52.726;-2.108;2022-11-15T07:26:07;6.22;;;1.30;;
28934;SDS011;16044;52.726;-2.108;2022-11-15T07:28:34;5.65;;;1.15;;
28934;SDS011;16044;52.726;-2.108;2022-11-15T07:31:06;3.65;;;1.10;;
28934;SDS011;16044;52.726;-2.108;2022-11-15T07:33:34;4.65;;;0.98;;
28934;SDS011;16044;52.726;-2.108;2022-11-15T07:36:02;7.30;;;1.20;;
28934;SDS011;16044;52.726;-2.108;2022-11-15T07:38:32;6.00;;;0.95;;
28934;SDS011;16044;52.726;-2.108;2022-11-15T07:41:07;3.97;;;0.93;;
28934;SDS011;16044;52.726;-2.108;2022-11-15T07:43:34;4.85;;;0.93;;
28934;SDS011;16044;52.726;-2.108;2022-11-15T07:46:05;5.35;;;1.35;;
28934;SDS011;16044;52.726;-2.108;2022-11-15T07:48:36;5.47;;;1.30;;
28934;SDS011;16044;52.726;-2.108;2022-11-15T07:51:19;4.50;;;1.20;;
28934;SDS011;16044;52.726;-2.108;2022-11-15T07:53:50;6.68;;;1.00;;
28934;SDS011;16044;52.726;-2.108;2022-11-15T07:56:17;4.25;;;1.00;;
28934;SDS011;16044;52.726;-2.108;2022-11-15T07:58:45;3.42;;;0.75;;
28934;SDS011;16044;52.726;-2.108;2022-11-15T08:01:12;5.20;;;2.00;;
28934;SDS011;16044;52.726;-2.108;2022-11-15T08:03:40;5.70;;;1.25;;
28934;SDS011;16044;52.726;-2.108;2022-11-15T08:06:06;4.47;;;1.10;;
28934;SDS011;16044;52.726;-2.108;2022-11-15T08:08:33;1.95;;;0.80;;
28934;SDS011;16044;52.726;-2.108;2022-11-15T08:11:00;3.22;;;0.70;;
28934;SDS011;16044;52.726;-2.108;2022-11-15T08:13:27;2.78;;;0.80;;
28934;SDS011;16044;52.726;-2.108;2022-11-15T08:16:01;5.03;;;0.90;;
28934;SDS011;16044;52.726;-2.108;2022-11-15T08:18:31;2.28;;;0.77;;
28934;SDS011;16044;52.726;-2.108;2022-11-15T08:20:59;3.13;;;0.90;;
28934;SDS011;16044;52.726;-2.108;2022-11-15T08:23:27;3.40;;;1.00;;
28934;SDS011;16044;52.726;-2.108;2022-11-15T08:25:59;5.88;;;0.85;;
28934;SDS011;16044;52.726;-2.108;2022-11-15T08:28:30;4.10;;;0.90;;
28934;SDS011;16044;52.726;-2.108;2022-11-15T08:30:58;3.38;;;0.90;;
28934;SDS011;16044;52.726;-2.108;2022-11-15T08:33:25;2.83;;;0.60;;
28934;SDS011;16044;52.726;-2.108;2022-11-15T08:35:52;3.25;;;0.70;;
28934;SDS011;16044;52.726;-2.108;2022-11-15T08:38:23;4.97;;;0.85;;
28934;SDS011;16044;52.726;-2.108;2022-11-15T08:40:51;1.50;;;0.68;;
28934;SDS011;16044;52.726;-2.108;2022-11-15T08:43:20;3.38;;;0.90;;
28934;SDS011;16044;52.726;-2.108;2022-11-15T08:45:46;2.72;;;0.70;;
28934;SDS011;16044;52.726;-2.108;2022-11-15T08:48:13;2.67;;;0.77;;
28934;SDS011;16044;52.726;-2.108;2022-11-15T08:50:40;2.42;;;0.90;;
28934;SDS011;16044;52.726;-2.108;2022-11-15T08:53:07;3.15;;;0.80;;
28934;SDS011;16044;52.726;-2.108;2022-11-15T08:55:38;2.53;;;0.68;;
28934;SDS011;16044;52.726;-2.108;2022-11-15T08:58:06;2.67;;;0.60;;
28934;SDS011;16044;52.726;-2.108;2022-11-15T09:00:33;3.55;;;0.80;;
28934;SDS011;16044;52.726;-2.108;2022-11-15T09:03:03;3.85;;;1.10;;
28934;SDS011;16044;52.726;-2.108;2022-11-15T09:05:31;9.75;;;0.90;;
28934;SDS011;16044;52.726;-2.108;2022-11-15T09:07:59;2.35;;;0.73;;
28934;SDS011;16044;52.726;-2.108;2022-11-15T09:10:35;2.92;;;0.80;;
28934;SDS011;16044;52.726;-2.108;2022-11-15T09:13:02;1.30;;;0.70;;
28934;SDS011;16044;52.726;-2.108;2022-11-15T09:15:29;1.83;;;0.70;;
28934;SDS011;16044;52.726;-2.108;2022-11-15T09:17:59;3.60;;;0.80;;
28934;SDS011;16044;52.726;-2.108;2022-11-15T09:20:26;3.15;;;0.95;;
28934;SDS011;16044;52.726;-2.108;2022-11-15T09:22:53;1.45;;;0.70;;
28934;SDS011;16044;52.726;-2.108;2022-11-15T09:25:20;2.03;;;0.85;;
28934;SDS011;16044;52.726;-2.108;2022-11-15T09:27:47;1.65;;;0.80;;
28934;SDS011;16044;52.726;-2.108;2022-11-15T09:30:14;5.25;;;1.00;;
28934;SDS011;16044;52.726;-2.108;2022-11-15T09:32:41;3.35;;;0.70;;
28934;SDS011;16044;52.726;-2.108;2022-11-15T09:35:08;5.68;;;0.85;;
28934;SDS011;16044;52.726;-2.108;2022-11-15T09:37:35;1.85;;;0.80;;
28934;SDS011;16044;52.726;-2.108;2022-11-15T09:40:02;4.78;;;0.77;;
28934;SDS011;16044;52.726;-2.108;2022-11-15T09:51:08;2.65;;;0.68;;
28934;SDS011;16044;52.726;-2.108;2022-11-15T09:56:49;2.20;;;0.68;;
28934;SDS011;16044;52.726;-2.108;2022-11-15T10:05:25;2.38;;;1.30;;
28934;SDS011;16044;52.726;-2.108;2022-11-15T10:07:58;2.60;;;1.08;;
28934;SDS011;16044;52.726;-2.108;2022-11-15T10:10:56;2.22;;;0.90;;
28934;SDS011;16044;52.726;-2.108;2022-11-15T10:13:46;1.98;;;0.68;;
28934;SDS011;16044;52.726;-2.108;2022-11-15T10:19:00;5.78;;;0.70;;
28934;SDS011;16044;52.726;-2.108;2022-11-15T10:21:42;2.47;;;0.70;;
28934;SDS011;16044;52.726;-2.108;2022-11-15T10:24:26;3.78;;;0.90;;
28934;SDS011;16044;52.726;-2.108;2022-11-15T10:26:55;2.95;;;0.77;;
28934;SDS011;16044;52.726;-2.108;2022-11-15T10:29:24;2.20;;;0.70;;
28934;SDS011;16044;52.726;-2.108;2022-11-15T10:31:52;4.38;;;0.90;;
28934;SDS011;16044;52.726;-2.108;2022-11-15T10:34:20;4.53;;;0.80;;
28934;SDS011;16044;52.726;-2.108;2022-11-15T10:36:59;2.35;;;0.70;;
28934;SDS011;16044;52.726;-2.108;2022-11-15T10:39:28;3.35;;;1.02;;
28934;SDS011;16044;52.726;-2.108;2022-11-15T10:41:55;3.05;;;0.70;;
28934;SDS011;16044;52.726;-2.108;2022-11-15T10:44:25;2.92;;;0.60;;
28934;SDS011;16044;52.726;-2.108;2022-11-15T10:49:29;3.65;;;1.10;;
28934;SDS011;16044;52.726;-2.108;2022-11-15T10:52:00;5.05;;;2.10;;
28934;SDS011;16044;52.726;-2.108;2022-11-15T10:54:33;8.07;;;1.80;;
28934;SDS011;16044;52.726;-2.108;2022-11-15T10:57:16;8.23;;;1.20;;
28934;SDS011;16044;52.726;-2.108;2022-11-15T10:59:46;3.58;;;1.55;;
28934;SDS011;16044;52.726;-2.108;2022-11-15T11:05:06;4.15;;;0.85;;
28934;SDS011;16044;52.726;-2.108;2022-11-15T11:08:36;4.35;;;0.75;;
28934;SDS011;16044;52.726;-2.108;2022-11-15T11:10:54;3.95;;;0.70;;
28934;SDS011;16044;52.726;-2.108;2022-11-15T11:13:29;3.72;;;1.00;;
28934;SDS011;16044;52.726;-2.108;2022-11-15T11:16:06;4.30;;;0.90;;
28934;SDS011;16044;52.726;-2.108;2022-11-15T11:22:21;4.90;;;1.40;;
28934;SDS011;16044;52.726;-2.108;2022-11-15T11:25:16;4.00;;;1.17;;
28934;SDS011;16044;52.726;-2.108;2022-11-15T11:28:16;3.53;;;1.17;;
28934;SDS011;16044;52.726;-2.108;2022-11-15T11:33:56;1.88;;;0.77;;
28934;SDS011;16044;52.726;-2.108;2022-11-15T11:36:37;3.53;;;0.75;;
28934;SDS011;16044;52.726;-2.108;2022-11-15T11:42:32;2.00;;;0.80;;
28934;SDS011;16044;52.726;-2.108;2022-11-15T11:47:42;1.95;;;0.90;;
28934;SDS011;16044;52.726;-2.108;2022-11-15T11:50:18;3.58;;;1.00;;
28934;SDS011;16044;52.726;-2.108;2022-11-15T11:55:39;4.82;;;1.05;;
28934;SDS011;16044;52.726;-2.108;2022-11-15T11:58:33;3.50;;;1.20;;
28934;SDS011;16044;52.726;-2.108;2022-11-15T12:03:53;4.97;;;1.58;;
28934;SDS011;16044;52.726;-2.108;2022-11-15T12:09:55;5.05;;;1.30;;
28934;SDS011;16044;52.726;-2.108;2022-11-15T12:15:37;4.07;;;0.60;;
28934;SDS011;16044;52.726;-2.108;2022-11-15T12:18:12;3.35;;;0.70;;
28934;SDS011;16044;52.726;-2.108;2022-11-15T12:20:52;3.28;;;0.50;;
28934;SDS011;16044;52.726;-2.108;2022-11-15T12:23:30;3.13;;;0.63;;
28934;SDS011;16044;52.726;-2.108;2022-11-15T12:26:10;4.15;;;0.90;;
28934;SDS011;16044;52.726;-2.108;2022-11-15T12:28:45;5.95;;;1.00;;
28934;SDS011;16044;52.726;-2.108;2022-11-15T12:31:47;6.22;;;1.30;;
28934;SDS011;16044;52.726;-2.108;2022-11-15T12:36:48;4.78;;;1.30;;
28934;SDS011;16044;52.726;-2.108;2022-11-15T12:39:17;4.10;;;1.00;;
28934;SDS011;16044;52.726;-2.108;2022-11-15T13:02:32;4.38;;;0.85;;
28934;SDS011;16044;52.726;-2.108;2022-11-15T13:10:32;3.15;;;0.70;;
28934;SDS011;16044;52.726;-2.108;2022-11-15T13:13:01;7.05;;;0.98;;
28934;SDS011;16044;52.726;-2.108;2022-11-15T13:17:56;4.38;;;0.80;;
28934;SDS011;16044;52.726;-2.108;2022-11-15T13:20:30;3.08;;;0.82;;
28934;SDS011;16044;52.726;-2.108;2022-11-15T13:28:09;2.85;;;1.00;;
28934;SDS011;16044;52.726;-2.108;2022-11-15T13:33:17;6.55;;;0.90;;
28934;SDS011;16044;52.726;-2.108;2022-11-15T13:35:51;7.63;;;0.90;;
28934;SDS011;16044;52.726;-2.108;2022-11-15T13:40:50;6.25;;;0.82;;
28934;SDS011;16044;52.726;-2.108;2022-11-15T13:48:34;3.78;;;0.70;;
28934;SDS011;16044;52.726;-2.108;2022-11-15T13:51:06;6.43;;;1.02;;
28934;SDS011;16044;52.726;-2.108;2022-11-15T13:53:43;2.28;;;0.50;;
28934;SDS011;16044;52.726;-2.108;2022-11-15T13:56:16;7.07;;;1.10;;
28934;SDS011;16044;52.726;-2.108;2022-11-15T13:58:45;7.18;;;0.98;;
28934;SDS011;16044;52.726;-2.108;2022-11-15T14:01:14;5.75;;;1.23;;
28934;SDS011;16044;52.726;-2.108;2022-11-15T14:03:47;10.25;;;1.23;;
28934;SDS011;16044;52.726;-2.108;2022-11-15T14:06:24;3.85;;;0.75;;
28934;SDS011;16044;52.726;-2.108;2022-11-15T14:11:35;5.18;;;1.20;;
28934;SDS011;16044;52.726;-2.108;2022-11-15T14:16:43;6.43;;;1.10;;
28934;SDS011;16044;52.726;-2.108;2022-11-15T14:19:34;9.40;;;1.15;;
28934;SDS011;16044;52.726;-2.108;2022-11-15T14:25:06;7.43;;;1.30;;
28934;SDS011;16044;52.726;-2.108;2022-11-15T14:30:52;6.50;;;1.00;;
28934;SDS011;16044;52.726;-2.108;2022-11-15T14:33:22;8.57;;;1.50;;
28934;SDS011;16044;52.726;-2.108;2022-11-15T14:35:56;8.50;;;1.20;;
28934;SDS011;16044;52.726;-2.108;2022-11-15T14:38:25;6.97;;;1.02;;
28934;SDS011;16044;52.726;-2.108;2022-11-15T14:40:52;7.53;;;1.10;;
28934;SDS011;16044;52.726;-2.108;2022-11-15T14:43:22;4.40;;;0.93;;
28934;SDS011;16044;52.726;-2.108;2022-11-15T14:45:49;11.10;;;1.52;;
28934;SDS011;16044;52.726;-2.108;2022-11-15T14:48:16;4.07;;;1.08;;
28934;SDS011;16044;52.726;-2.108;2022-11-15T14:50:43;6.40;;;1.20;;
28934;SDS011;16044;52.726;-2.108;2022-11-15T14:53:19;7.18;;;1.17;;
28934;SDS011;16044;52.726;-2.108;2022-11-15T14:55:47;4.60;;;1.20;;
28934;SDS011;16044;52.726;-2.108;2022-11-15T14:58:14;5.78;;;1.30;;
28934;SDS011;16044;52.726;-2.108;2022-11-15T15:00:41;9.50;;;1.40;;
28934;SDS011;16044;52.726;-2.108;2022-11-15T15:03:08;7.28;;;1.38;;
28934;SDS011;16044;52.726;-2.108;2022-11-15T15:05:39;5.95;;;1.20;;
28934;SDS011;16044;52.726;-2.108;2022-11-15T15:08:09;5.55;;;1.25;;
28934;SDS011;16044;52.726;-2.108;2022-11-15T15:10:38;7.43;;;1.17;;
28934;SDS011;16044;52.726;-2.108;2022-11-15T15:13:11;9.25;;;1.30;;
28934;SDS011;16044;52.726;-2.108;2022-11-15T15:15:47;6.15;;;1.25;;
28934;SDS011;16044;52.726;-2.108;2022-11-15T15:18:15;6.57;;;1.17;;
28934;SDS011;16044;52.726;-2.108;2022-11-15T15:20:47;5.43;;;1.00;;
28934;SDS011;16044;52.726;-2.108;2022-11-15T15:23:26;6.18;;;0.80;;
28934;SDS011;16044;52.726;-2.108;2022-11-15T15:25:55;7.30;;;1.05;;
28934;SDS011;16044;52.726;-2.108;2022-11-15T15:28:22;8.10;;;1.58;;
28934;SDS011;16044;52.726;-2.108;2022-11-15T15:30:49;5.38;;;1.23;;
28934;SDS011;16044;52.726;-2.108;2022-11-15T15:33:16;9.13;;;1.48;;
28934;SDS011;16044;52.726;-2.108;2022-11-15T15:35:43;7.25;;;1.45;;
28934;SDS011;16044;52.726;-2.108;2022-11-15T15:38:13;9.25;;;1.70;;
28934;SDS011;16044;52.726;-2.108;2022-11-15T15:40:44;7.50;;;1.90;;
28934;SDS011;16044;52.726;-2.108;2022-11-15T15:43:11;8.93;;;1.65;;
28934;SDS011;16044;52.726;-2.108;2022-11-15T15:45:38;7.70;;;1.85;;
28934;SDS011;16044;52.726;-2.108;2022-11-15T15:48:11;15.13;;;2.10;;
28934;SDS011;16044;52.726;-2.108;2022-11-15T15:50:43;8.40;;;1.85;;
28934;SDS011;16044;52.726;-2.108;2022-11-15T15:53:11;8.68;;;1.80;;
28934;SDS011;16044;52.726;-2.108;2022-11-15T15:55:39;6.82;;;1.67;;
28934;SDS011;16044;52.726;-2.108;2022-11-15T15:58:06;14.85;;;3.22;;
28934;SDS011;16044;52.726;-2.108;2022-11-15T16:00:35;9.85;;;3.75;;
28934;SDS011;16044;52.726;-2.108;2022-11-15T16:03:03;13.45;;;3.83;;
28934;SDS011;16044;52.726;-2.108;2022-11-15T16:05:30;8.75;;;3.25;;
28934;SDS011;16044;52.726;-2.108;2022-11-15T16:07:57;10.95;;;3.50;;
28934;SDS011;16044;52.726;-2.108;2022-11-15T16:12:56;12.45;;;2.90;;
28934;SDS011;16044;52.726;-2.108;2022-11-15T16:15:25;16.35;;;3.40;;
28934;SDS011;16044;52.726;-2.108;2022-11-15T16:17:54;9.30;;;2.53;;
28934;SDS011;16044;52.726;-2.108;2022-11-15T16:22:55;12.98;;;2.22;;
28934;SDS011;16044;52.726;-2.108;2022-11-15T16:25:22;11.25;;;2.60;;
28934;SDS011;16044;52.726;-2.108;2022-11-15T16:27:50;12.13;;;2.40;;
28934;SDS011;16044;52.726;-2.108;2022-11-15T16:30:18;11.60;;;2.38;;
28934;SDS011;16044;52.726;-2.108;2022-11-15T16:32:47;10.05;;;1.88;;
28934;SDS011;16044;52.726;-2.108;2022-11-15T16:35:15;8.70;;;1.95;;
28934;SDS011;16044;52.726;-2.108;2022-11-15T16:37:43;9.48;;;1.70;;
28934;SDS011;16044;52.726;-2.108;2022-11-15T16:40:29;11.57;;;2.42;;
28934;SDS011;16044;52.726;-2.108;2022-11-15T16:42:58;13.45;;;2.67;;
28934;SDS011;16044;52.726;-2.108;2022-11-15T16:45:28;13.15;;;3.08;;
28934;SDS011;16044;52.726;-2.108;2022-11-15T16:47:55;13.52;;;3.63;;
28934;SDS011;16044;52.726;-2.108;2022-11-15T16:50:24;18.73;;;3.90;;
28934;SDS011;16044;52.726;-2.108;2022-11-15T16:52:54;18.13;;;4.57;;
28934;SDS011;16044;52.726;-2.108;2022-11-15T16:55:24;16.80;;;4.50;;
28934;SDS011;16044;52.726;-2.108;2022-11-15T16:57:55;15.65;;;4.55;;
28934;SDS011;16044;52.726;-2.108;2022-11-15T17:00:26;16.27;;;5.30;;
28934;SDS011;16044;52.726;-2.108;2022-11-15T17:02:54;19.40;;;7.85;;
28934;SDS011;16044;52.726;-2.108;2022-11-15T17:05:22;23.27;;;7.75;;
28934;SDS011;16044;52.726;-2.108;2022-11-15T17:07:52;17.90;;;7.38;;
28934;SDS011;16044;52.726;-2.108;2022-11-15T17:10:20;20.48;;;6.60;;
28934;SDS011;16044;52.726;-2.108;2022-11-15T17:12:55;18.15;;;5.50;;